Time;durP1;ratioP1;P1;durP2;ratioP2;P2;SDS_P1;SDS_P2;PMS_P1;PMS_P2;Temp;Humidity;BMP_temperature;BMP_pressure;BME280_temperature;BME280_humidity;BME280_pressure;Samples;Min_cycle;Max_cycle;Signal;HPM_P1;HPM_P2
2023/07/08 00:01:17;;;;;;;4.60;3.77;;;26.30;46.20;;;;;;4998211;28;20468;-48
2023/07/08 00:03:46;;;;;;;3.87;3.57;;;26.30;46.20;;;;;;4999581;28;20468;-48
2023/07/08 00:06:19;;;;;;;3.30;2.93;;;26.30;46.20;;;;;;4994420;28;20985;-48
2023/07/08 00:08:47;;;;;;;3.90;3.50;;;26.30;46.30;;;;;;4992415;28;20468;-48
2023/07/08 00:11:18;;;;;;;4.33;3.53;;;26.30;46.40;;;;;;5008403;28;20473;-48
2023/07/08 00:13:46;;;;;;;4.77;3.43;;;26.30;46.20;;;;;;4990800;28;20491;-48
2023/07/08 00:16:16;;;;;;;3.40;3.10;;;26.30;46.30;;;;;;4999694;28;20502;-48
2023/07/08 00:18:45;;;;;;;4.40;3.80;;;26.30;46.40;;;;;;4997664;28;20511;-48
2023/07/08 00:21:16;;;;;;;4.53;3.10;;;26.30;46.30;;;;;;5003237;28;21098;-48
2023/07/08 00:23:46;;;;;;;3.83;3.20;;;26.30;46.40;;;;;;4992369;28;20471;-48
2023/07/08 00:26:19;;;;;;;4.10;3.70;;;26.30;46.40;;;;;;5001635;28;20473;-48
2023/07/08 00:28:48;;;;;;;4.17;3.27;;;26.30;46.40;;;;;;4996135;28;20493;-48
2023/07/08 00:31:17;;;;;;;3.60;3.30;;;26.30;46.50;;;;;;4990051;28;20524;-48
2023/07/08 00:33:45;;;;;;;3.43;3.13;;;26.30;46.40;;;;;;4993341;28;20954;-48
2023/07/08 00:36:16;;;;;;;4.57;3.40;;;26.30;46.40;;;;;;4992559;28;20499;-48
2023/07/08 00:38:45;;;;;;;6.33;3.70;;;26.30;46.30;;;;;;5002635;28;20488;-48
2023/07/08 00:41:21;;;;;;;3.87;3.47;;;26.30;46.30;;;;;;5000397;28;21007;-48
2023/07/08 00:43:51;;;;;;;3.60;3.30;;;26.30;46.20;;;;;;5003303;28;20467;-48
2023/07/08 00:46:38;;;;;;;4.70;3.53;;;26.30;46.20;;;;;;5007023;28;20519;-48
2023/07/08 00:49:21;;;;;;;3.83;2.90;;;26.30;46.40;;;;;;5006101;28;20996;-49
2023/07/08 00:51:50;;;;;;;3.90;2.97;;;26.30;46.40;;;;;;5004497;28;20488;-48
2023/07/08 00:54:20;;;;;;;4.00;3.60;;;26.30;46.40;;;;;;4993166;28;20545;-48
2023/07/08 00:56:54;;;;;;;3.30;2.77;;;26.30;46.20;;;;;;5010155;28;21066;-49
2023/07/08 00:59:32;;;;;;;4.10;3.47;;;26.30;46.20;;;;;;4986701;28;20455;-48
2023/07/08 01:02:05;;;;;;;4.07;3.67;;;26.30;46.20;;;;;;4999111;28;20535;-48
2023/07/08 01:04:42;;;;;;;4.87;4.17;;;26.30;46.20;;;;;;4987771;28;20890;-48
2023/07/08 01:07:12;;;;;;;4.10;3.70;;;26.30;46.10;;;;;;4986201;28;20491;-49
2023/07/08 01:09:45;;;;;;;3.30;3.00;;;26.30;46.20;;;;;;5004780;28;20445;-48
2023/07/08 01:12:20;;;;;;;4.17;3.77;;;26.30;46.20;;;;;;5009940;28;20459;-48
2023/07/08 01:14:53;;;;;;;3.77;3.43;;;26.30;46.20;;;;;;4991806;28;20851;-48
2023/07/08 01:17:22;;;;;;;3.50;3.20;;;26.30;46.30;;;;;;5006995;28;20527;-48
2023/07/08 01:19:55;;;;;;;4.20;3.80;;;26.30;46.40;;;;;;4986182;28;20468;-48
2023/07/08 01:22:30;;;;;;;3.80;3.50;;;26.30;46.40;;;;;;5002417;28;20485;-48
2023/07/08 01:25:03;;;;;;;4.00;3.60;;;26.30;46.40;;;;;;5000078;28;20475;-48
2023/07/08 01:27:35;;;;;;;3.77;3.47;;;26.30;46.40;;;;;;4991656;28;20544;-47
2023/07/08 01:30:05;;;;;;;4.00;3.60;;;26.30;46.40;;;;;;5012168;28;20501;-48
2023/07/08 01:32:37;;;;;;;4.00;3.40;;;26.30;46.50;;;;;;5007887;28;20457;-48
2023/07/08 01:35:06;;;;;;;3.90;3.30;;;26.30;46.50;;;;;;4991798;28;20470;-49
2023/07/08 01:37:47;;;;;;;5.80;3.57;;;26.30;46.60;;;;;;5003109;28;20456;-49
2023/07/08 01:40:35;;;;;;;4.10;3.23;;;26.30;46.70;;;;;;5011904;28;20494;-48
2023/07/08 01:43:05;;;;;;;4.33;3.90;;;26.30;46.70;;;;;;4999021;28;20523;-48
2023/07/08 01:45:40;;;;;;;3.70;3.40;;;26.30;46.60;;;;;;4995025;28;20492;-48
2023/07/08 01:48:13;;;;;;;5.67;3.60;;;26.30;46.70;;;;;;4998970;28;20493;-48
2023/07/08 01:50:46;;;;;;;4.03;3.43;;;26.30;46.70;;;;;;5002016;28;20472;-48
2023/07/08 01:53:20;;;;;;;4.07;3.67;;;26.30;46.70;;;;;;5012425;28;20440;-48
2023/07/08 01:55:48;;;;;;;5.17;3.87;;;26.30;46.70;;;;;;5015276;28;20472;-53
2023/07/08 01:58:18;;;;;;;4.57;3.87;;;26.30;46.60;;;;;;4989147;28;20749;-48
2023/07/08 02:00:48;;;;;;;3.57;3.27;;;26.30;46.80;;;;;;4990219;28;20906;-48
2023/07/08 02:03:17;;;;;;;4.10;3.70;;;26.30;46.80;;;;;;5004360;28;20439;-48
2023/07/08 02:05:45;;;;;;;3.97;3.57;;;26.20;46.80;;;;;;4995612;28;20473;-48
2023/07/08 02:08:15;;;;;;;3.50;3.20;;;26.20;46.70;;;;;;4998535;28;20462;-48
2023/07/08 02:10:45;;;;;;;3.83;3.37;;;26.20;46.80;;;;;;5007281;28;20564;-48
2023/07/08 02:13:14;;;;;;;3.57;3.27;;;26.20;46.80;;;;;;5010252;28;20429;-48
2023/07/08 02:15:42;;;;;;;4.10;3.70;;;26.20;46.80;;;;;;4995150;28;20460;-49
2023/07/08 02:18:11;;;;;;;3.93;3.53;;;26.20;46.70;;;;;;4997430;28;20432;-48
2023/07/08 02:20:39;;;;;;;3.90;3.50;;;26.20;46.70;;;;;;4997827;28;20468;-48
2023/07/08 02:23:08;;;;;;;4.10;3.47;;;26.20;46.70;;;;;;5012416;28;20914;-48
2023/07/08 02:25:38;;;;;;;4.43;3.50;;;26.20;46.70;;;;;;5015777;28;20576;-48
2023/07/08 02:28:06;;;;;;;3.80;3.20;;;26.20;46.60;;;;;;5004066;28;20476;-48
2023/07/08 02:30:36;;;;;;;3.97;3.60;;;26.20;46.60;;;;;;5007303;28;20473;-48
2023/07/08 02:33:05;;;;;;;3.97;3.63;;;26.20;46.50;;;;;;5000020;28;20563;-48
2023/07/08 02:35:35;;;;;;;5.20;4.37;;;26.20;46.50;;;;;;5012060;28;20437;-48
2023/07/08 02:38:04;;;;;;;4.23;3.73;;;26.20;46.40;;;;;;4985450;28;20567;-49
2023/07/08 02:40:33;;;;;;;5.47;4.37;;;26.20;46.40;;;;;;4990904;28;20491;-49
2023/07/08 02:43:03;;;;;;;3.87;3.53;;;26.20;46.40;;;;;;5005754;28;20981;-48
2023/07/08 02:45:32;;;;;;;3.90;3.60;;;26.20;46.40;;;;;;5007155;28;20477;-48
2023/07/08 02:48:01;;;;;;;4.20;3.80;;;26.20;46.50;;;;;;4991036;28;20462;-49
2023/07/08 02:50:29;;;;;;;4.67;4.27;;;26.20;46.50;;;;;;5007800;28;20473;-48
2023/07/08 02:52:58;;;;;;;5.63;4.10;;;26.20;46.50;;;;;;5011710;28;20522;-50
2023/07/08 02:55:27;;;;;;;3.90;3.10;;;26.20;46.60;;;;;;5007334;28;20448;-49
2023/07/08 02:57:55;;;;;;;3.77;3.47;;;26.20;46.50;;;;;;5010188;28;20811;-48
2023/07/08 03:00:25;;;;;;;4.47;4.07;;;26.20;46.40;;;;;;4992488;28;20579;-48
2023/07/08 03:02:54;;;;;;;3.63;3.30;;;26.20;46.40;;;;;;5008796;28;20448;-48
2023/07/08 03:05:22;;;;;;;4.17;3.73;;;26.10;46.40;;;;;;4990177;28;20471;-48
2023/07/08 03:07:51;;;;;;;4.37;3.97;;;26.10;46.60;;;;;;5006062;28;20456;-48
2023/07/08 03:10:19;;;;;;;4.07;3.67;;;26.20;46.70;;;;;;4993897;28;20491;-49
2023/07/08 03:12:48;;;;;;;3.73;3.20;;;26.20;46.60;;;;;;5013752;28;20449;-48
2023/07/08 03:15:17;;;;;;;4.30;3.50;;;26.10;46.50;;;;;;5006396;28;20495;-48
2023/07/08 03:17:46;;;;;;;4.30;3.47;;;26.10;46.60;;;;;;5004644;28;20869;-49
2023/07/08 03:20:17;;;;;;;4.20;3.80;;;26.10;46.60;;;;;;4999521;28;20493;-49
2023/07/08 03:22:45;;;;;;;3.73;3.43;;;26.10;46.50;;;;;;5007193;28;20449;-48
2023/07/08 03:25:14;;;;;;;5.20;4.70;;;26.10;46.70;;;;;;4996152;28;20482;-49
2023/07/08 03:27:43;;;;;;;4.40;4.00;;;26.10;46.70;;;;;;5006539;28;20976;-49
2023/07/08 03:30:12;;;;;;;4.07;3.67;;;26.10;46.70;;;;;;4997451;28;20506;-48
2023/07/08 03:32:41;;;;;;;3.83;3.27;;;26.10;46.60;;;;;;5012335;28;20450;-49
2023/07/08 03:35:11;;;;;;;4.10;3.70;;;26.20;46.70;;;;;;4996937;28;20495;-48
2023/07/08 03:37:39;;;;;;;4.57;3.97;;;26.10;46.70;;;;;;5006493;28;20456;-49
2023/07/08 03:40:10;;;;;;;6.07;3.73;;;26.10;46.70;;;;;;5009446;28;20480;-48
2023/07/08 03:42:39;;;;;;;4.00;3.60;;;26.10;46.60;;;;;;5010069;28;20480;-49
2023/07/08 03:45:08;;;;;;;4.77;3.87;;;26.10;46.70;;;;;;5014194;28;20453;-49
2023/07/08 03:47:36;;;;;;;4.80;3.30;;;26.10;47.90;;;;;;5003862;28;20963;-49
2023/07/08 03:50:12;;;;;;;4.87;4.37;;;26.10;46.60;;;;;;4997121;28;20467;-49
2023/07/08 03:52:42;;;;;;;5.60;4.30;;;26.10;46.60;;;;;;5004528;28;20964;-48
2023/07/08 03:55:12;;;;;;;4.40;3.80;;;26.10;46.70;;;;;;4987331;28;20500;-49
2023/07/08 03:57:41;;;;;;;3.57;3.27;;;26.10;46.70;;;;;;4991405;28;20444;-49
2023/07/08 04:00:13;;;;;;;5.00;4.43;;;26.10;46.70;;;;;;4998974;28;20460;-49
2023/07/08 04:02:42;;;;;;;6.40;3.80;;;26.00;46.70;;;;;;4999420;28;20529;-49
2023/07/08 04:05:16;;;;;;;4.00;2.95;;;26.10;46.80;;;;;;4997776;28;20844;-49
2023/07/08 04:07:48;;;;;;;4.87;4.00;;;26.00;46.90;;;;;;5000047;28;20482;-49
2023/07/08 04:10:17;;;;;;;4.97;4.43;;;26.10;46.80;;;;;;5009323;28;20517;-48
2023/07/08 04:12:45;;;;;;;4.10;3.70;;;26.10;46.80;;;;;;5005563;28;20456;-49
2023/07/08 04:15:16;;;;;;;4.57;4.13;;;26.00;46.70;;;;;;4999019;28;20448;-49
2023/07/08 04:17:47;;;;;;;4.00;3.60;;;26.00;46.80;;;;;;4990301;28;20511;-49
2023/07/08 04:20:18;;;;;;;4.17;3.77;;;26.00;46.70;;;;;;4994484;28;20487;-49
2023/07/08 04:22:48;;;;;;;5.13;4.37;;;26.00;46.70;;;;;;5006721;28;20452;-48
2023/07/08 04:25:19;;;;;;;4.33;3.93;;;26.00;46.40;;;;;;5009840;28;20440;-49
2023/07/08 04:27:47;;;;;;;4.63;4.23;;;26.00;46.60;;;;;;4995938;28;20527;-49
2023/07/08 04:30:25;;;;;;;4.03;3.73;;;26.00;46.00;;;;;;4988405;28;20548;-48
2023/07/08 04:32:55;;;;;;;5.00;4.30;;;26.00;46.20;;;;;;4994287;28;20805;-49
2023/07/08 04:35:24;;;;;;;4.93;3.90;;;26.00;46.30;;;;;;4987982;28;20525;-49
2023/07/08 04:37:54;;;;;;;6.37;4.87;;;25.90;46.20;;;;;;5013325;28;20455;-49
2023/07/08 04:40:23;;;;;;;4.33;3.93;;;26.00;46.30;;;;;;4994755;28;20503;-49
2023/07/08 04:42:52;;;;;;;4.13;3.70;;;26.00;46.30;;;;;;4993434;28;20531;-48
2023/07/08 04:45:21;;;;;;;6.90;5.50;;;25.90;45.90;;;;;;4989949;28;20471;-49
2023/07/08 04:47:52;;;;;;;5.80;5.20;;;25.90;46.00;;;;;;4991285;28;20475;-49
2023/07/08 04:50:21;;;;;;;7.50;4.53;;;25.90;45.90;;;;;;4994606;28;20503;-49
2023/07/08 04:52:50;;;;;;;4.90;4.43;;;26.00;46.30;;;;;;4990832;28;21024;-49
2023/07/08 04:55:20;;;;;;;5.27;4.47;;;25.90;46.20;;;;;;4993808;28;20487;-49
2023/07/08 04:57:49;;;;;;;4.67;4.17;;;25.90;46.00;;;;;;5012718;28;20488;-49
2023/07/08 05:00:19;;;;;;;6.10;5.10;;;26.00;46.20;;;;;;4998343;28;20530;-48
2023/07/08 05:02:48;;;;;;;5.10;4.67;;;25.90;45.90;;;;;;4992120;28;20462;-48
2023/07/08 05:05:17;;;;;;;5.40;4.83;;;26.00;46.00;;;;;;4987381;28;20521;-49
2023/07/08 05:07:45;;;;;;;4.77;4.37;;;25.90;46.10;;;;;;5004639;28;20471;-48
2023/07/08 05:10:14;;;;;;;5.77;5.27;;;25.90;47.30;;;;;;5010218;28;20819;-49
2023/07/08 05:12:44;;;;;;;4.73;4.27;;;25.90;46.20;;;;;;5014085;28;20997;-49
2023/07/08 05:15:13;;;;;;;5.47;4.87;;;25.90;46.40;;;;;;4989616;28;20527;-49
2023/07/08 05:17:42;;;;;;;5.40;4.87;;;25.90;46.70;;;;;;4990082;28;20449;-49
2023/07/08 05:20:13;;;;;;;6.80;6.20;;;25.90;46.80;;;;;;5012494;28;20464;-49
2023/07/08 05:22:45;;;;;;;8.00;5.73;;;25.90;46.80;;;;;;4989864;28;20509;-49
2023/07/08 05:25:14;;;;;;;6.20;5.50;;;25.90;47.00;;;;;;5004742;28;20533;-49
2023/07/08 05:27:44;;;;;;;5.93;5.43;;;25.90;47.20;;;;;;5013465;28;20559;-49
2023/07/08 05:30:16;;;;;;;5.67;5.17;;;25.90;47.40;;;;;;5006958;28;20469;-49
2023/07/08 05:32:45;;;;;;;6.37;5.27;;;25.90;48.60;;;;;;4975964;28;20527;-48
2023/07/08 05:35:14;;;;;;;6.20;5.63;;;25.90;47.50;;;;;;5011998;28;20435;-48
2023/07/08 05:37:46;;;;;;;9.27;6.00;;;25.90;47.50;;;;;;5003633;28;20474;-48
2023/07/08 05:40:16;;;;;;;6.77;5.70;;;25.90;47.40;;;;;;5011396;28;20472;-49
2023/07/08 05:42:46;;;;;;;5.97;4.90;;;25.90;47.40;;;;;;4994846;28;20429;-49
2023/07/08 05:45:15;;;;;;;6.13;5.53;;;25.90;47.40;;;;;;5004258;28;20959;-48
2023/07/08 05:47:43;;;;;;;5.23;4.73;;;25.90;47.50;;;;;;4992889;28;20471;-49
2023/07/08 05:50:12;;;;;;;5.40;4.83;;;25.90;47.40;;;;;;5001688;28;21049;-49
2023/07/08 05:52:40;;;;;;;5.23;4.73;;;25.90;47.60;;;;;;4988337;28;20981;-49
2023/07/08 05:55:09;;;;;;;5.77;5.17;;;25.90;47.70;;;;;;5002057;28;20451;-49
2023/07/08 05:57:38;;;;;;;5.93;5.33;;;25.90;47.70;;;;;;4997952;28;20437;-49
2023/07/08 06:00:10;;;;;;;6.00;5.40;;;25.90;47.60;;;;;;5004151;28;20526;-49
2023/07/08 06:02:39;;;;;;;4.60;4.20;;;25.90;47.50;;;;;;4995007;28;20461;-48
2023/07/08 06:05:08;;;;;;;6.33;4.90;;;25.90;47.60;;;;;;4994474;28;20445;-48
2023/07/08 06:07:37;;;;;;;4.97;4.47;;;25.90;47.60;;;;;;5005462;28;20567;-48
2023/07/08 06:10:06;;;;;;;5.17;4.63;;;25.90;47.60;;;;;;5003298;28;20471;-48
2023/07/08 06:12:34;;;;;;;7.73;5.97;;;25.90;47.60;;;;;;5001859;28;20519;-49
2023/07/08 06:15:03;;;;;;;6.10;5.50;;;25.90;47.20;;;;;;4995747;28;20856;-49
2023/07/08 06:17:34;;;;;;;5.70;5.10;;;25.80;47.00;;;;;;4990263;28;20452;-49
2023/07/08 06:20:02;;;;;;;6.63;5.70;;;25.90;46.80;;;;;;4997999;28;20472;-49
2023/07/08 06:22:34;;;;;;;6.13;5.53;;;25.80;46.90;;;;;;4997190;28;20507;-49
2023/07/08 06:25:06;;;;;;;6.60;5.90;;;25.80;46.60;;;;;;5007122;28;20810;-49
2023/07/08 06:27:34;;;;;;;5.77;5.17;;;25.80;46.70;;;;;;5007578;28;20554;-50
2023/07/08 06:30:03;;;;;;;5.90;5.40;;;25.80;47.00;;;;;;4994982;28;20550;-49
2023/07/08 06:32:33;;;;;;;5.20;4.70;;;25.70;46.80;;;;;;4996360;28;20452;-49
2023/07/08 06:35:02;;;;;;;6.03;5.43;;;25.80;47.20;;;;;;5011574;28;20839;-48
2023/07/08 06:37:30;;;;;;;6.43;5.77;;;25.80;47.20;;;;;;5005919;28;20549;-49
2023/07/08 06:39:59;;;;;;;5.90;5.17;;;25.80;47.20;;;;;;5012687;28;20513;-49
2023/07/08 06:42:29;;;;;;;6.87;6.20;;;25.80;47.30;;;;;;4994188;28;20780;-49
2023/07/08 06:45:09;;;;;;;5.53;5.00;;;25.80;47.20;;;;;;5017191;28;20450;-49
2023/07/08 06:47:39;;;;;;;7.13;6.03;;;25.80;47.20;;;;;;4993114;28;20464;-49
2023/07/08 06:50:08;;;;;;;6.67;5.80;;;25.80;47.30;;;;;;4991152;28;20468;-49
2023/07/08 06:52:37;;;;;;;6.77;5.90;;;25.80;47.00;;;;;;5004752;28;20458;-49
2023/07/08 06:55:07;;;;;;;5.80;5.30;;;25.70;46.80;;;;;;4994074;28;20445;-48
2023/07/08 06:57:37;;;;;;;7.23;5.30;;;25.80;47.00;;;;;;5010490;28;20453;-49
2023/07/08 07:00:08;;;;;;;6.37;5.77;;;25.80;46.70;;;;;;5001540;28;20475;-49
2023/07/08 07:02:39;;;;;;;6.57;5.97;;;25.80;46.50;;;;;;4990645;28;20441;-49
2023/07/08 07:05:08;;;;;;;6.27;5.50;;;25.70;46.50;;;;;;5012933;28;20925;-49
2023/07/08 07:07:37;;;;;;;6.37;5.77;;;25.70;46.80;;;;;;4993856;28;20469;-49
2023/07/08 07:10:07;;;;;;;6.53;5.77;;;25.70;47.10;;;;;;4998706;28;20474;-49
2023/07/08 07:12:36;;;;;;;6.13;5.53;;;25.80;47.10;;;;;;5008875;28;20470;-49
2023/07/08 07:15:06;;;;;;;6.07;5.30;;;25.80;47.20;;;;;;4989470;28;20983;-49
2023/07/08 07:17:35;;;;;;;7.60;6.07;;;25.80;47.20;;;;;;4986117;28;20445;-49
2023/07/08 07:20:06;;;;;;;6.00;5.00;;;25.80;47.00;;;;;;5004701;28;20464;-48
2023/07/08 07:22:36;;;;;;;6.67;5.67;;;25.80;47.10;;;;;;4993460;28;20464;-49
2023/07/08 07:25:05;;;;;;;5.80;5.30;;;25.80;47.10;;;;;;4986339;28;20452;-49
2023/07/08 07:27:33;;;;;;;6.80;5.47;;;25.80;46.90;;;;;;4976393;28;20492;-49
2023/07/08 07:30:02;;;;;;;6.90;5.70;;;25.80;47.00;;;;;;5008416;28;20462;-48
2023/07/08 07:32:32;;;;;;;8.07;5.87;;;25.80;47.10;;;;;;5007526;28;20456;-49
2023/07/08 07:35:01;;;;;;;5.80;4.50;;;25.80;47.20;;;;;;5011032;28;20439;-49
2023/07/08 07:37:31;;;;;;;6.60;4.67;;;25.80;47.50;;;;;;4995808;28;20460;-50
2023/07/08 07:39:59;;;;;;;5.40;4.70;;;25.80;47.50;;;;;;4992354;28;21046;-48
2023/07/08 07:42:28;;;;;;;6.03;4.87;;;25.80;47.50;;;;;;5005687;28;20472;-49
2023/07/08 07:44:57;;;;;;;5.67;5.17;;;25.90;47.50;;;;;;4995769;28;20498;-49
2023/07/08 07:47:25;;;;;;;8.07;6.10;;;25.80;47.30;;;;;;4988837;28;20460;-48
2023/07/08 07:49:58;;;;;;;6.50;5.60;;;25.90;47.40;;;;;;4995752;28;20504;-49
2023/07/08 07:52:26;;;;;;;7.27;6.50;;;25.80;47.30;;;;;;5001919;28;20449;-49
2023/07/08 07:54:56;;;;;;;5.77;4.97;;;25.80;47.60;;;;;;4991662;28;20445;-48
2023/07/08 07:57:25;;;;;;;5.50;5.00;;;25.80;47.70;;;;;;5009159;28;20426;-49
2023/07/08 07:59:53;;;;;;;6.20;5.40;;;25.90;47.80;;;;;;5007076;28;20481;-49
2023/07/08 08:02:22;;;;;;;4.60;4.20;;;25.80;47.90;;;;;;4991484;28;20533;-49
2023/07/08 08:04:50;;;;;;;5.07;4.57;;;25.80;47.80;;;;;;5008059;28;20804;-48
2023/07/08 08:07:21;;;;;;;4.87;4.00;;;25.80;47.90;;;;;;4995916;28;20517;-49
2023/07/08 08:09:49;;;;;;;5.00;4.40;;;25.80;48.00;;;;;;5006789;28;20504;-48
2023/07/08 08:12:19;;;;;;;5.37;4.50;;;25.80;49.30;;;;;;4992878;28;20468;-49
2023/07/08 08:14:48;;;;;;;4.70;4.23;;;25.80;48.00;;;;;;4974908;28;20448;-49
2023/07/08 08:17:16;;;;;;;6.00;5.10;;;25.80;48.00;;;;;;4965745;28;20477;-49
2023/07/08 08:19:44;;;;;;;5.50;4.97;;;25.80;49.20;;;;;;4961532;28;20489;-49
2023/07/08 08:22:13;;;;;;;4.63;4.20;;;25.90;48.00;;;;;;5005182;28;20571;-49
2023/07/08 08:24:42;;;;;;;5.10;4.60;;;25.80;47.90;;;;;;4983548;28;20464;-48
2023/07/08 08:27:10;;;;;;;4.53;4.13;;;25.80;48.00;;;;;;5000263;28;20491;-49
2023/07/08 08:29:40;;;;;;;4.73;4.20;;;25.90;48.10;;;;;;4997583;28;20491;-49
2023/07/08 08:32:11;;;;;;;5.00;4.50;;;25.90;48.00;;;;;;4984894;28;20826;-49
2023/07/08 08:34:40;;;;;;;7.03;5.33;;;25.90;48.00;;;;;;5009621;28;20449;-49
2023/07/08 08:37:08;;;;;;;7.30;4.80;;;25.90;47.90;;;;;;5006125;28;20473;-49
2023/07/08 08:39:36;;;;;;;4.90;4.40;;;25.90;48.00;;;;;;5004514;28;20825;-49
2023/07/08 08:42:11;;;;;;;5.53;4.93;;;25.90;47.90;;;;;;4994099;28;20459;-49
2023/07/08 08:44:44;;;;;;;4.90;4.17;;;25.90;47.90;;;;;;4995347;28;20473;-49
2023/07/08 08:47:33;;;;;;;4.33;3.93;;;25.90;47.80;;;;;;5003112;28;20730;-49
2023/07/08 08:50:24;;;;;;;5.33;4.70;;;25.90;49.00;;;;;;5006197;28;20586;-49
2023/07/08 08:52:54;;;;;;;4.70;4.30;;;25.90;47.80;;;;;;4990880;28;20453;-49
2023/07/08 08:55:24;;;;;;;6.33;5.23;;;25.90;47.90;;;;;;5008499;28;20478;-49
2023/07/08 08:58:05;;;;;;;4.63;4.23;;;25.90;47.90;;;;;;5003880;28;20508;-49
2023/07/08 09:00:50;;;;;;;5.17;4.67;;;25.90;47.80;;;;;;4994095;28;20865;-48
2023/07/08 09:03:26;;;;;;;5.60;4.43;;;25.90;47.90;;;;;;4987995;28;20452;-49
2023/07/08 09:06:00;;;;;;;5.77;5.27;;;25.90;47.80;;;;;;4990514;28;20471;-49
2023/07/08 09:08:34;;;;;;;5.20;4.63;;;25.90;47.80;;;;;;5005459;28;20560;-49
2023/07/08 09:11:13;;;;;;;5.20;4.20;;;25.90;47.80;;;;;;5004970;28;20482;-49
2023/07/08 09:13:42;;;;;;;6.10;5.00;;;25.90;47.60;;;;;;4991681;28;20445;-49
2023/07/08 09:16:26;;;;;;;5.23;4.60;;;26.00;47.60;;;;;;5006314;28;20471;-49
2023/07/08 09:18:59;;;;;;;5.43;4.43;;;26.00;47.80;;;;;;4993189;28;20444;-49
2023/07/08 09:21:32;;;;;;;5.70;4.50;;;25.90;47.70;;;;;;5000555;28;20484;-49
2023/07/08 09:24:07;;;;;;;4.90;4.30;;;26.00;47.80;;;;;;5005638;28;20448;-50
2023/07/08 09:26:37;;;;;;;5.30;4.80;;;25.90;47.60;;;;;;5008146;28;20517;-49
2023/07/08 09:29:09;;;;;;;5.50;4.90;;;26.00;47.70;;;;;;4994146;28;20982;-49
2023/07/08 09:31:42;;;;;;;5.60;4.37;;;26.00;47.70;;;;;;5004201;28;20480;-49
2023/07/08 09:34:13;;;;;;;4.83;4.43;;;25.90;47.70;;;;;;5004057;28;20461;-49
2023/07/08 09:36:43;;;;;;;4.77;4.27;;;25.90;48.90;;;;;;5007820;28;20469;-49
2023/07/08 09:39:13;;;;;;;5.23;4.70;;;25.90;47.60;;;;;;4985879;28;20460;-49
2023/07/08 09:41:44;;;;;;;7.20;5.00;;;25.90;47.80;;;;;;4994378;28;21069;-49
2023/07/08 09:44:22;;;;;;;4.73;4.07;;;26.00;47.90;;;;;;4993268;28;20812;-49
2023/07/08 09:46:52;;;;;;;6.10;4.73;;;25.90;47.70;;;;;;4990013;28;20483;-49
2023/07/08 09:49:25;;;;;;;5.07;4.57;;;25.90;47.50;;;;;;4999003;28;20559;-49
2023/07/08 09:51:54;;;;;;;4.77;4.27;;;25.90;47.40;;;;;;4990275;28;20479;-49
2023/07/08 09:54:24;;;;;;;5.47;4.97;;;25.90;47.40;;;;;;5000781;28;20452;-49
2023/07/08 09:57:01;;;;;;;5.63;4.27;;;25.90;47.40;;;;;;5006661;28;20472;-49
2023/07/08 09:59:37;;;;;;;4.80;4.40;;;25.90;47.50;;;;;;4999166;28;20447;-49
2023/07/08 10:02:27;;;;;;;5.27;4.20;;;25.90;47.30;;;;;;4993735;28;20490;-49
2023/07/08 10:04:58;;;;;;;5.17;4.67;;;25.90;47.40;;;;;;5001850;28;20449;-49
2023/07/08 10:07:30;;;;;;;4.97;4.47;;;25.90;47.40;;;;;;4989660;28;20473;-49
2023/07/08 10:10:03;;;;;;;6.80;5.10;;;25.90;47.50;;;;;;5010887;28;21239;-49
2023/07/08 10:12:33;;;;;;;5.60;5.10;;;25.90;47.40;;;;;;5003570;28;20536;-49
2023/07/08 10:15:08;;;;;;;4.30;3.90;;;25.90;47.10;;;;;;5011097;28;20814;-49
2023/07/08 10:17:41;;;;;;;4.90;4.40;;;26.00;47.30;;;;;;4984897;28;20988;-49
2023/07/08 10:20:13;;;;;;;4.80;4.30;;;25.90;47.30;;;;;;5008065;28;20448;-49
2023/07/08 10:22:48;;;;;;;4.83;4.43;;;26.00;47.30;;;;;;4991381;28;20481;-49
2023/07/08 10:25:27;;;;;;;5.73;5.10;;;26.00;47.30;;;;;;4993825;28;20471;-49
2023/07/08 10:28:08;;;;;;;6.70;4.30;;;26.00;47.20;;;;;;5012469;28;20451;-49
2023/07/08 10:30:49;;;;;;;5.47;4.90;;;26.00;47.00;;;;;;5006610;28;20576;-50
2023/07/08 10:33:45;;;;;;;6.60;4.37;;;26.00;47.30;;;;;;5005389;28;20456;-49
2023/07/08 10:36:24;;;;;;;4.50;3.70;;;26.00;47.10;;;;;;4988529;28;20872;-49
2023/07/08 10:39:05;;;;;;;4.87;4.43;;;26.00;47.20;;;;;;5002075;28;20968;-49
2023/07/08 10:41:46;;;;;;;5.27;4.77;;;26.00;47.10;;;;;;5006982;28;20499;-50
2023/07/08 10:44:22;;;;;;;5.70;4.53;;;26.00;47.00;;;;;;5002788;28;20472;-50
2023/07/08 10:46:59;;;;;;;4.07;3.67;;;26.00;47.00;;;;;;4994847;28;20725;-49
2023/07/08 10:49:49;;;;;;;5.67;4.50;;;26.00;46.90;;;;;;4988752;28;20464;-49
2023/07/08 10:52:36;;;;;;;5.80;4.23;;;26.00;47.00;;;;;;5006736;28;20479;-50
2023/07/08 10:55:19;;;;;;;5.37;4.20;;;26.00;47.20;;;;;;5007353;28;20499;-49
2023/07/08 10:58:18;;;;;;;4.67;4.23;;;26.00;47.10;;;;;;5007085;28;20488;-49
2023/07/08 11:00:53;;;;;;;5.20;4.70;;;26.00;47.10;;;;;;4991069;28;20482;-49
2023/07/08 11:03:55;;;;;;;4.57;4.17;;;26.00;47.10;;;;;;4989172;28;20462;-49
2023/07/08 11:06:41;;;;;;;5.17;4.67;;;26.00;47.20;;;;;;4982554;28;20486;-49
2023/07/08 11:09:14;;;;;;;4.87;4.37;;;26.00;47.00;;;;;;4982856;28;20456;-49
2023/07/08 11:11:47;;;;;;;5.20;4.70;;;26.00;47.20;;;;;;5005016;28;20491;-48
2023/07/08 11:14:21;;;;;;;4.57;4.17;;;26.00;47.00;;;;;;5004974;28;20989;-49
2023/07/08 11:17:05;;;;;;;5.17;4.53;;;26.00;47.20;;;;;;4992965;28;20471;-49
2023/07/08 11:19:39;;;;;;;4.70;4.30;;;26.00;47.10;;;;;;4992864;28;20867;-49
2023/07/08 11:22:12;;;;;;;4.80;3.53;;;26.00;47.10;;;;;;4988816;28;20864;-48
2023/07/08 11:24:46;;;;;;;5.10;3.70;;;26.00;47.10;;;;;;4988294;28;20867;-49
2023/07/08 11:27:24;;;;;;;5.50;4.53;;;26.00;47.20;;;;;;4994459;28;20483;-49
2023/07/08 11:29:57;;;;;;;3.97;3.57;;;26.00;47.10;;;;;;5002325;28;20481;-49
2023/07/08 11:32:28;;;;;;;4.50;3.80;;;26.10;47.20;;;;;;4987927;28;20476;-50
2023/07/08 11:34:59;;;;;;;4.47;4.00;;;26.10;47.20;;;;;;5001562;28;20957;-49
2023/07/08 11:37:31;;;;;;;4.97;4.20;;;26.00;46.90;;;;;;5000156;28;20564;-48
2023/07/08 11:40:08;;;;;;;5.03;4.20;;;26.10;47.10;;;;;;5007421;28;20476;-49
2023/07/08 11:42:43;;;;;;;6.40;3.90;;;26.00;47.10;;;;;;4992139;28;20448;-49
2023/07/08 11:45:31;;;;;;;5.47;4.40;;;26.00;47.10;;;;;;4984209;28;20489;-49
2023/07/08 11:48:07;;;;;;;5.23;4.07;;;26.10;47.00;;;;;;4988351;28;20449;-50
2023/07/08 11:50:41;;;;;;;4.40;4.00;;;26.10;47.10;;;;;;5008189;28;20487;-49
2023/07/08 11:53:13;;;;;;;5.20;4.27;;;26.10;47.10;;;;;;5001072;28;20453;-50
2023/07/08 11:55:47;;;;;;;5.93;4.40;;;26.10;47.10;;;;;;4996859;28;20715;-49
2023/07/08 11:58:22;;;;;;;3.40;3.10;;;26.10;47.10;;;;;;4988414;28;20614;-48
2023/07/08 12:01:00;;;;;;;5.40;3.90;;;26.10;47.20;;;;;;4991412;28;20483;-49
2023/07/08 12:03:36;;;;;;;4.63;4.17;;;26.10;47.10;;;;;;4994402;28;20461;-48
2023/07/08 12:06:25;;;;;;;4.80;4.30;;;26.10;47.10;;;;;;4986541;28;20489;-49
2023/07/08 12:08:56;;;;;;;4.90;3.97;;;26.10;47.20;;;;;;5002891;28;20461;-49
2023/07/08 12:11:45;;;;;;;4.60;4.13;;;26.10;47.20;;;;;;4988768;28;20476;-49
2023/07/08 12:14:15;;;;;;;5.13;4.40;;;26.10;47.20;;;;;;5008102;28;20437;-48
2023/07/08 12:16:44;;;;;;;4.57;4.17;;;26.10;47.20;;;;;;4989615;28;20494;-49
2023/07/08 12:19:18;;;;;;;4.33;3.93;;;26.10;47.10;;;;;;4990399;28;20445;-49
2023/07/08 12:21:46;;;;;;;5.00;4.37;;;26.20;47.00;;;;;;4987251;28;20484;-49
2023/07/08 12:24:16;;;;;;;5.40;4.50;;;26.10;46.60;;;;;;4993769;28;20520;-49
2023/07/08 12:26:45;;;;;;;4.63;4.17;;;26.10;46.80;;;;;;5007018;28;20578;-49
2023/07/08 12:29:14;;;;;;;4.33;3.90;;;26.10;46.90;;;;;;4988232;28;20456;-49
2023/07/08 12:31:43;;;;;;;5.00;4.30;;;26.20;46.90;;;;;;5002614;28;20486;-49
2023/07/08 12:34:16;;;;;;;4.57;4.10;;;26.20;46.80;;;;;;5005110;28;20851;-49
2023/07/08 12:36:47;;;;;;;5.20;4.10;;;26.20;46.70;;;;;;5004532;28;20477;-49
2023/07/08 12:39:17;;;;;;;4.80;4.20;;;26.20;46.80;;;;;;4990419;28;20454;-49
2023/07/08 12:41:48;;;;;;;3.77;3.47;;;26.20;46.80;;;;;;4985655;28;22149;-49
2023/07/08 12:44:22;;;;;;;4.30;3.90;;;26.20;46.70;;;;;;5006683;28;20814;-49
2023/07/08 12:46:53;;;;;;;4.20;3.80;;;26.20;46.80;;;;;;4994253;28;20471;-49
2023/07/08 12:49:26;;;;;;;4.40;3.87;;;26.20;46.90;;;;;;4992357;28;20808;-49
2023/07/08 12:51:58;;;;;;;4.33;3.90;;;26.20;46.90;;;;;;5004470;28;20668;-49
2023/07/08 12:54:30;;;;;;;5.67;4.13;;;26.20;47.00;;;;;;4994095;28;20451;-49
2023/07/08 12:56:59;;;;;;;4.20;3.80;;;26.30;47.00;;;;;;5004120;28;20471;-49
2023/07/08 12:59:28;;;;;;;3.67;3.10;;;26.30;46.90;;;;;;4981476;28;20458;-49
2023/07/08 13:01:59;;;;;;;4.13;3.73;;;26.20;47.00;;;;;;4988054;28;20456;-49
2023/07/08 13:04:29;;;;;;;3.60;3.27;;;26.20;46.90;;;;;;4990920;28;20447;-49
2023/07/08 13:06:57;;;;;;;3.80;3.40;;;26.20;46.80;;;;;;4982421;28;20474;-49
2023/07/08 13:09:37;;;;;;;5.27;3.90;;;26.30;46.70;;;;;;5004700;28;20962;-49
2023/07/08 13:12:14;;;;;;;5.13;4.17;;;26.30;46.90;;;;;;4990395;28;20486;-48